sensor_id;sensor_type;location;lat;lon;timestamp;P1;durP1;ratioP1;P2;durP2;ratioP2
59571;SDS011;59406;45.602;11.904;2022-07-06T00:02:09;6.95;;;1.60;;
59571;SDS011;59406;45.602;11.904;2022-07-06T00:04:35;5.50;;;1.55;;
59571;SDS011;59406;45.602;11.904;2022-07-06T00:07:01;6.72;;;2.05;;
59571;SDS011;59406;45.602;11.904;2022-07-06T00:09:27;6.97;;;1.90;;
59571;SDS011;59406;45.602;11.904;2022-07-06T00:11:53;9.30;;;2.20;;
59571;SDS011;59406;45.602;11.904;2022-07-06T00:14:19;5.18;;;1.80;;
59571;SDS011;59406;45.602;11.904;2022-07-06T00:16:46;5.93;;;2.45;;
59571;SDS011;59406;45.602;11.904;2022-07-06T00:19:12;5.53;;;1.55;;
59571;SDS011;59406;45.602;11.904;2022-07-06T00:21:38;6.07;;;1.80;;
59571;SDS011;59406;45.602;11.904;2022-07-06T00:24:04;6.35;;;2.60;;
59571;SDS011;59406;45.602;11.904;2022-07-06T00:26:30;5.25;;;1.60;;
59571;SDS011;59406;45.602;11.904;2022-07-06T00:28:56;4.85;;;2.20;;
59571;SDS011;59406;45.602;11.904;2022-07-06T00:31:22;5.70;;;2.23;;
59571;SDS011;59406;45.602;11.904;2022-07-06T00:33:48;4.72;;;2.20;;
59571;SDS011;59406;45.602;11.904;2022-07-06T00:36:14;4.88;;;2.35;;
59571;SDS011;59406;45.602;11.904;2022-07-06T00:38:40;5.43;;;2.22;;
59571;SDS011;59406;45.602;11.904;2022-07-06T00:41:06;5.30;;;2.20;;
59571;SDS011;59406;45.602;11.904;2022-07-06T00:43:54;5.07;;;2.05;;
59571;SDS011;59406;45.602;11.904;2022-07-06T00:46:26;7.32;;;2.38;;
59571;SDS011;59406;45.602;11.904;2022-07-06T00:48:55;5.20;;;1.98;;
59571;SDS011;59406;45.602;11.904;2022-07-06T00:51:22;5.97;;;2.42;;
59571;SDS011;59406;45.602;11.904;2022-07-06T00:53:51;5.43;;;2.20;;
59571;SDS011;59406;45.602;11.904;2022-07-06T00:56:18;5.63;;;2.53;;
59571;SDS011;59406;45.602;11.904;2022-07-06T00:58:45;5.15;;;2.20;;
59571;SDS011;59406;45.602;11.904;2022-07-06T01:01:11;5.25;;;2.55;;
59571;SDS011;59406;45.602;11.904;2022-07-06T01:03:37;6.32;;;2.28;;
59571;SDS011;59406;45.602;11.904;2022-07-06T01:06:03;4.77;;;2.00;;
59571;SDS011;59406;45.602;11.904;2022-07-06T01:08:29;6.53;;;2.50;;
59571;SDS011;59406;45.602;11.904;2022-07-06T01:10:55;5.32;;;2.90;;
59571;SDS011;59406;45.602;11.904;2022-07-06T01:13:21;5.85;;;2.08;;
59571;SDS011;59406;45.602;11.904;2022-07-06T01:15:47;5.20;;;2.80;;
59571;SDS011;59406;45.602;11.904;2022-07-06T01:18:13;5.70;;;2.85;;
59571;SDS011;59406;45.602;11.904;2022-07-06T01:20:40;5.88;;;2.72;;
59571;SDS011;59406;45.602;11.904;2022-07-06T01:23:06;5.60;;;3.17;;
59571;SDS011;59406;45.602;11.904;2022-07-06T01:25:32;5.93;;;3.40;;
59571;SDS011;59406;45.602;11.904;2022-07-06T01:27:58;6.47;;;3.17;;
59571;SDS011;59406;45.602;11.904;2022-07-06T01:30:24;7.50;;;3.95;;
59571;SDS011;59406;45.602;11.904;2022-07-06T01:32:50;6.90;;;3.17;;
59571;SDS011;59406;45.602;11.904;2022-07-06T01:35:16;6.25;;;3.03;;
59571;SDS011;59406;45.602;11.904;2022-07-06T01:37:42;5.38;;;2.95;;
59571;SDS011;59406;45.602;11.904;2022-07-06T01:40:09;5.22;;;3.10;;
59571;SDS011;59406;45.602;11.904;2022-07-06T01:42:36;6.03;;;3.10;;
59571;SDS011;59406;45.602;11.904;2022-07-06T01:45:03;6.00;;;3.13;;
59571;SDS011;59406;45.602;11.904;2022-07-06T01:47:30;6.50;;;2.90;;
59571;SDS011;59406;45.602;11.904;2022-07-06T01:49:58;9.05;;;3.17;;
59571;SDS011;59406;45.602;11.904;2022-07-06T01:52:26;6.03;;;3.70;;
59571;SDS011;59406;45.602;11.904;2022-07-06T01:54:52;5.10;;;3.00;;
59571;SDS011;59406;45.602;11.904;2022-07-06T01:57:20;4.70;;;2.20;;
59571;SDS011;59406;45.602;11.904;2022-07-06T01:59:45;5.55;;;2.45;;
59571;SDS011;59406;45.602;11.904;2022-07-06T02:02:11;5.80;;;2.83;;
59571;SDS011;59406;45.602;11.904;2022-07-06T02:04:37;4.53;;;2.43;;
59571;SDS011;59406;45.602;11.904;2022-07-06T02:07:03;5.20;;;2.50;;
59571;SDS011;59406;45.602;11.904;2022-07-06T02:09:29;5.43;;;3.25;;
59571;SDS011;59406;45.602;11.904;2022-07-06T02:11:55;4.93;;;2.27;;
59571;SDS011;59406;45.602;11.904;2022-07-06T02:14:20;5.38;;;2.53;;
59571;SDS011;59406;45.602;11.904;2022-07-06T02:16:46;5.80;;;2.90;;
59571;SDS011;59406;45.602;11.904;2022-07-06T02:19:12;5.70;;;2.70;;
59571;SDS011;59406;45.602;11.904;2022-07-06T02:21:38;6.50;;;3.27;;
59571;SDS011;59406;45.602;11.904;2022-07-06T02:24:04;6.83;;;3.30;;
59571;SDS011;59406;45.602;11.904;2022-07-06T02:26:30;6.65;;;3.63;;
59571;SDS011;59406;45.602;11.904;2022-07-06T02:28:56;4.63;;;2.15;;
59571;SDS011;59406;45.602;11.904;2022-07-06T02:31:22;5.90;;;3.50;;
59571;SDS011;59406;45.602;11.904;2022-07-06T02:33:48;6.20;;;3.30;;
59571;SDS011;59406;45.602;11.904;2022-07-06T02:36:13;7.25;;;4.07;;
59571;SDS011;59406;45.602;11.904;2022-07-06T02:38:39;7.10;;;3.83;;
59571;SDS011;59406;45.602;11.904;2022-07-06T02:41:05;6.15;;;3.97;;
59571;SDS011;59406;45.602;11.904;2022-07-06T02:43:31;6.93;;;4.15;;
59571;SDS011;59406;45.602;11.904;2022-07-06T02:45:57;6.10;;;3.63;;
59571;SDS011;59406;45.602;11.904;2022-07-06T02:48:23;6.10;;;3.47;;
59571;SDS011;59406;45.602;11.904;2022-07-06T02:50:48;5.43;;;3.60;;
59571;SDS011;59406;45.602;11.904;2022-07-06T02:53:14;6.80;;;4.78;;
59571;SDS011;59406;45.602;11.904;2022-07-06T02:55:42;5.90;;;3.55;;
59571;SDS011;59406;45.602;11.904;2022-07-06T02:58:08;5.60;;;3.47;;
59571;SDS011;59406;45.602;11.904;2022-07-06T03:00:33;7.25;;;4.53;;
59571;SDS011;59406;45.602;11.904;2022-07-06T03:02:59;8.57;;;4.77;;
59571;SDS011;59406;45.602;11.904;2022-07-06T03:05:25;8.70;;;4.87;;
59571;SDS011;59406;45.602;11.904;2022-07-06T03:07:51;8.27;;;4.47;;
59571;SDS011;59406;45.602;11.904;2022-07-06T03:10:16;6.83;;;3.70;;
59571;SDS011;59406;45.602;11.904;2022-07-06T03:12:42;6.07;;;4.13;;
59571;SDS011;59406;45.602;11.904;2022-07-06T03:15:08;7.43;;;4.60;;
59571;SDS011;59406;45.602;11.904;2022-07-06T03:17:35;8.23;;;4.23;;
59571;SDS011;59406;45.602;11.904;2022-07-06T03:20:03;6.80;;;4.10;;
59571;SDS011;59406;45.602;11.904;2022-07-06T03:22:30;6.10;;;3.78;;
59571;SDS011;59406;45.602;11.904;2022-07-06T03:24:56;6.47;;;3.72;;
59571;SDS011;59406;45.602;11.904;2022-07-06T03:27:23;5.70;;;3.63;;
59571;SDS011;59406;45.602;11.904;2022-07-06T03:29:48;7.13;;;3.40;;
59571;SDS011;59406;45.602;11.904;2022-07-06T03:32:14;6.80;;;4.03;;
59571;SDS011;59406;45.602;11.904;2022-07-06T03:34:40;5.93;;;3.08;;
59571;SDS011;59406;45.602;11.904;2022-07-06T03:37:06;7.17;;;4.03;;
59571;SDS011;59406;45.602;11.904;2022-07-06T03:39:32;5.72;;;3.75;;
59571;SDS011;59406;45.602;11.904;2022-07-06T03:41:58;7.28;;;4.35;;
59571;SDS011;59406;45.602;11.904;2022-07-06T03:44:24;6.70;;;4.07;;
59571;SDS011;59406;45.602;11.904;2022-07-06T03:46:50;6.70;;;4.85;;
59571;SDS011;59406;45.602;11.904;2022-07-06T03:49:18;8.40;;;4.63;;
59571;SDS011;59406;45.602;11.904;2022-07-06T03:51:43;11.37;;;4.93;;
59571;SDS011;59406;45.602;11.904;2022-07-06T03:54:09;7.03;;;4.45;;
59571;SDS011;59406;45.602;11.904;2022-07-06T03:56:35;7.97;;;4.55;;
59571;SDS011;59406;45.602;11.904;2022-07-06T03:59:03;7.53;;;4.77;;
59571;SDS011;59406;45.602;11.904;2022-07-06T04:01:30;8.02;;;4.95;;
59571;SDS011;59406;45.602;11.904;2022-07-06T04:03:56;6.85;;;5.15;;
59571;SDS011;59406;45.602;11.904;2022-07-06T04:06:22;8.77;;;4.68;;
59571;SDS011;59406;45.602;11.904;2022-07-06T04:08:48;7.53;;;5.00;;
59571;SDS011;59406;45.602;11.904;2022-07-06T04:11:14;8.17;;;4.70;;
59571;SDS011;59406;45.602;11.904;2022-07-06T04:13:40;6.95;;;4.53;;
59571;SDS011;59406;45.602;11.904;2022-07-06T04:16:06;7.28;;;4.88;;
59571;SDS011;59406;45.602;11.904;2022-07-06T04:18:32;7.40;;;4.30;;
59571;SDS011;59406;45.602;11.904;2022-07-06T04:20:58;6.75;;;3.53;;
59571;SDS011;59406;45.602;11.904;2022-07-06T04:23:24;9.85;;;4.85;;
59571;SDS011;59406;45.602;11.904;2022-07-06T04:25:50;7.47;;;5.05;;
59571;SDS011;59406;45.602;11.904;2022-07-06T04:28:16;7.03;;;4.53;;
59571;SDS011;59406;45.602;11.904;2022-07-06T04:30:42;6.10;;;3.90;;
59571;SDS011;59406;45.602;11.904;2022-07-06T04:33:08;7.07;;;4.30;;
59571;SDS011;59406;45.602;11.904;2022-07-06T04:35:34;7.47;;;4.00;;
59571;SDS011;59406;45.602;11.904;2022-07-06T04:38:00;6.90;;;4.32;;
59571;SDS011;59406;45.602;11.904;2022-07-06T04:40:26;5.88;;;3.95;;
59571;SDS011;59406;45.602;11.904;2022-07-06T04:42:52;6.97;;;4.30;;
59571;SDS011;59406;45.602;11.904;2022-07-06T04:45:18;6.38;;;3.53;;
59571;SDS011;59406;45.602;11.904;2022-07-06T04:47:44;8.02;;;4.18;;
59571;SDS011;59406;45.602;11.904;2022-07-06T04:50:10;8.38;;;5.00;;
59571;SDS011;59406;45.602;11.904;2022-07-06T04:52:37;7.87;;;4.60;;
59571;SDS011;59406;45.602;11.904;2022-07-06T04:55:03;6.75;;;3.88;;
59571;SDS011;59406;45.602;11.904;2022-07-06T04:57:33;6.60;;;4.18;;
59571;SDS011;59406;45.602;11.904;2022-07-06T05:00:00;7.78;;;4.53;;
59571;SDS011;59406;45.602;11.904;2022-07-06T05:02:26;6.43;;;3.70;;
59571;SDS011;59406;45.602;11.904;2022-07-06T05:04:52;9.33;;;4.23;;
59571;SDS011;59406;45.602;11.904;2022-07-06T05:07:17;7.03;;;3.75;;
59571;SDS011;59406;45.602;11.904;2022-07-06T05:09:44;7.10;;;5.13;;
59571;SDS011;59406;45.602;11.904;2022-07-06T05:12:10;7.17;;;3.43;;
59571;SDS011;59406;45.602;11.904;2022-07-06T05:14:35;7.35;;;3.90;;
59571;SDS011;59406;45.602;11.904;2022-07-06T05:17:02;8.07;;;4.50;;
59571;SDS011;59406;45.602;11.904;2022-07-06T05:19:28;6.03;;;3.80;;
59571;SDS011;59406;45.602;11.904;2022-07-06T05:21:53;9.77;;;3.67;;
59571;SDS011;59406;45.602;11.904;2022-07-06T05:24:19;6.30;;;3.53;;
59571;SDS011;59406;45.602;11.904;2022-07-06T05:26:45;7.22;;;3.53;;
59571;SDS011;59406;45.602;11.904;2022-07-06T05:29:11;7.03;;;3.60;;
59571;SDS011;59406;45.602;11.904;2022-07-06T05:31:37;5.90;;;3.15;;
59571;SDS011;59406;45.602;11.904;2022-07-06T05:34:03;6.28;;;3.78;;
59571;SDS011;59406;45.602;11.904;2022-07-06T05:36:29;6.40;;;3.43;;
59571;SDS011;59406;45.602;11.904;2022-07-06T05:38:54;5.80;;;3.33;;
59571;SDS011;59406;45.602;11.904;2022-07-06T05:41:20;5.17;;;2.90;;
59571;SDS011;59406;45.602;11.904;2022-07-06T05:43:46;6.13;;;3.20;;
59571;SDS011;59406;45.602;11.904;2022-07-06T05:46:12;4.82;;;3.33;;
59571;SDS011;59406;45.602;11.904;2022-07-06T05:52:01;5.80;;;3.07;;
59571;SDS011;59406;45.602;11.904;2022-07-06T05:54:27;5.53;;;3.20;;
59571;SDS011;59406;45.602;11.904;2022-07-06T06:00:17;6.65;;;2.55;;
59571;SDS011;59406;45.602;11.904;2022-07-06T06:02:42;5.80;;;2.87;;
59571;SDS011;59406;45.602;11.904;2022-07-06T06:05:09;6.40;;;2.47;;
59571;SDS011;59406;45.602;11.904;2022-07-06T06:07:36;5.18;;;2.45;;
59571;SDS011;59406;45.602;11.904;2022-07-06T06:10:03;7.10;;;2.20;;
59571;SDS011;59406;45.602;11.904;2022-07-06T06:12:31;5.30;;;2.40;;
59571;SDS011;59406;45.602;11.904;2022-07-06T06:14:57;4.53;;;2.63;;
59571;SDS011;59406;45.602;11.904;2022-07-06T06:17:23;6.28;;;3.78;;
59571;SDS011;59406;45.602;11.904;2022-07-06T06:19:49;6.25;;;3.42;;
59571;SDS011;59406;45.602;11.904;2022-07-06T06:22:15;7.27;;;3.07;;
59571;SDS011;59406;45.602;11.904;2022-07-06T06:24:41;6.75;;;3.15;;
59571;SDS011;59406;45.602;11.904;2022-07-06T06:27:06;6.68;;;3.60;;
59571;SDS011;59406;45.602;11.904;2022-07-06T06:29:32;6.50;;;3.53;;
59571;SDS011;59406;45.602;11.904;2022-07-06T06:31:58;4.68;;;2.40;;
59571;SDS011;59406;45.602;11.904;2022-07-06T06:34:24;6.10;;;2.40;;
59571;SDS011;59406;45.602;11.904;2022-07-06T06:36:50;4.63;;;1.67;;
59571;SDS011;59406;45.602;11.904;2022-07-06T06:39:16;4.43;;;2.08;;
59571;SDS011;59406;45.602;11.904;2022-07-06T06:41:42;7.30;;;2.20;;
59571;SDS011;59406;45.602;11.904;2022-07-06T06:44:08;5.10;;;2.70;;
59571;SDS011;59406;45.602;11.904;2022-07-06T06:46:33;6.05;;;3.90;;
59571;SDS011;59406;45.602;11.904;2022-07-06T06:49:00;6.18;;;2.63;;
59571;SDS011;59406;45.602;11.904;2022-07-06T06:51:26;5.67;;;2.60;;
59571;SDS011;59406;45.602;11.904;2022-07-06T06:53:51;4.85;;;2.10;;
59571;SDS011;59406;45.602;11.904;2022-07-06T06:56:17;5.68;;;2.40;;
59571;SDS011;59406;45.602;11.904;2022-07-06T06:58:43;6.23;;;3.10;;
59571;SDS011;59406;45.602;11.904;2022-07-06T07:01:09;5.33;;;2.77;;
59571;SDS011;59406;45.602;11.904;2022-07-06T07:03:35;5.28;;;1.90;;
59571;SDS011;59406;45.602;11.904;2022-07-06T07:06:01;4.80;;;1.60;;
59571;SDS011;59406;45.602;11.904;2022-07-06T07:08:27;3.63;;;1.20;;
59571;SDS011;59406;45.602;11.904;2022-07-06T07:10:53;4.25;;;1.63;;
59571;SDS011;59406;45.602;11.904;2022-07-06T07:13:18;5.25;;;1.55;;
59571;SDS011;59406;45.602;11.904;2022-07-06T07:15:44;3.83;;;1.63;;
59571;SDS011;59406;45.602;11.904;2022-07-06T07:18:10;4.35;;;1.70;;
59571;SDS011;59406;45.602;11.904;2022-07-06T07:20:36;3.42;;;1.30;;
59571;SDS011;59406;45.602;11.904;2022-07-06T07:23:02;3.17;;;0.93;;
59571;SDS011;59406;45.602;11.904;2022-07-06T07:25:28;3.20;;;1.30;;
59571;SDS011;59406;45.602;11.904;2022-07-06T07:27:54;3.15;;;1.10;;
59571;SDS011;59406;45.602;11.904;2022-07-06T07:30:20;5.65;;;1.38;;
59571;SDS011;59406;45.602;11.904;2022-07-06T07:32:46;5.38;;;1.58;;
59571;SDS011;59406;45.602;11.904;2022-07-06T07:35:12;6.63;;;1.50;;
59571;SDS011;59406;45.602;11.904;2022-07-06T07:37:38;3.42;;;1.33;;
59571;SDS011;59406;45.602;11.904;2022-07-06T07:40:04;4.03;;;1.25;;
59571;SDS011;59406;45.602;11.904;2022-07-06T07:42:31;3.35;;;1.42;;
59571;SDS011;59406;45.602;11.904;2022-07-06T07:44:57;3.60;;;1.47;;
59571;SDS011;59406;45.602;11.904;2022-07-06T07:47:23;3.50;;;1.30;;
59571;SDS011;59406;45.602;11.904;2022-07-06T07:49:49;4.43;;;1.55;;
59571;SDS011;59406;45.602;11.904;2022-07-06T07:52:15;4.20;;;1.60;;
59571;SDS011;59406;45.602;11.904;2022-07-06T07:54:47;3.45;;;1.38;;
59571;SDS011;59406;45.602;11.904;2022-07-06T07:57:13;3.63;;;1.20;;
59571;SDS011;59406;45.602;11.904;2022-07-06T07:59:38;3.13;;;1.40;;
59571;SDS011;59406;45.602;11.904;2022-07-06T08:02:04;3.37;;;1.30;;
59571;SDS011;59406;45.602;11.904;2022-07-06T08:04:31;3.85;;;1.48;;
59571;SDS011;59406;45.602;11.904;2022-07-06T08:06:57;3.20;;;1.50;;
59571;SDS011;59406;45.602;11.904;2022-07-06T08:09:23;4.53;;;1.70;;
59571;SDS011;59406;45.602;11.904;2022-07-06T08:11:49;4.03;;;2.20;;
59571;SDS011;59406;45.602;11.904;2022-07-06T08:14:15;4.35;;;1.60;;
59571;SDS011;59406;45.602;11.904;2022-07-06T08:16:42;3.73;;;1.50;;
59571;SDS011;59406;45.602;11.904;2022-07-06T08:19:08;4.35;;;1.60;;
59571;SDS011;59406;45.602;11.904;2022-07-06T08:21:34;4.38;;;1.50;;
59571;SDS011;59406;45.602;11.904;2022-07-06T08:24:01;5.32;;;1.42;;
59571;SDS011;59406;45.602;11.904;2022-07-06T08:26:27;3.97;;;1.50;;
59571;SDS011;59406;45.602;11.904;2022-07-06T08:28:54;3.97;;;1.53;;
59571;SDS011;59406;45.602;11.904;2022-07-06T08:31:20;2.90;;;1.30;;
59571;SDS011;59406;45.602;11.904;2022-07-06T08:33:45;5.10;;;1.60;;
59571;SDS011;59406;45.602;11.904;2022-07-06T08:36:13;4.33;;;1.60;;
59571;SDS011;59406;45.602;11.904;2022-07-06T08:38:39;4.35;;;1.58;;
59571;SDS011;59406;45.602;11.904;2022-07-06T08:41:05;3.97;;;2.00;;
59571;SDS011;59406;45.602;11.904;2022-07-06T08:43:32;3.75;;;1.92;;
59571;SDS011;59406;45.602;11.904;2022-07-06T08:45:59;7.13;;;1.53;;
59571;SDS011;59406;45.602;11.904;2022-07-06T08:48:26;3.70;;;1.60;;
59571;SDS011;59406;45.602;11.904;2022-07-06T08:50:57;3.60;;;1.83;;
59571;SDS011;59406;45.602;11.904;2022-07-06T08:53:24;4.20;;;1.58;;
59571;SDS011;59406;45.602;11.904;2022-07-06T08:55:49;3.47;;;1.50;;
59571;SDS011;59406;45.602;11.904;2022-07-06T08:58:16;5.35;;;1.48;;
59571;SDS011;59406;45.602;11.904;2022-07-06T09:00:42;3.20;;;1.70;;
59571;SDS011;59406;45.602;11.904;2022-07-06T09:03:11;3.55;;;1.70;;
59571;SDS011;59406;45.602;11.904;2022-07-06T09:05:39;3.72;;;1.63;;
59571;SDS011;59406;45.602;11.904;2022-07-06T09:08:06;3.20;;;1.67;;
59571;SDS011;59406;45.602;11.904;2022-07-06T09:10:32;3.55;;;1.60;;
59571;SDS011;59406;45.602;11.904;2022-07-06T09:13:04;4.30;;;1.90;;
59571;SDS011;59406;45.602;11.904;2022-07-06T09:15:32;3.92;;;1.85;;
59571;SDS011;59406;45.602;11.904;2022-07-06T09:17:59;3.43;;;1.67;;
59571;SDS011;59406;45.602;11.904;2022-07-06T09:20:26;3.55;;;2.10;;
59571;SDS011;59406;45.602;11.904;2022-07-06T09:22:59;3.95;;;1.80;;
59571;SDS011;59406;45.602;11.904;2022-07-06T09:25:26;4.38;;;1.90;;
59571;SDS011;59406;45.602;11.904;2022-07-06T09:27:53;3.67;;;1.85;;
59571;SDS011;59406;45.602;11.904;2022-07-06T09:30:20;3.97;;;1.87;;
59571;SDS011;59406;45.602;11.904;2022-07-06T09:32:49;3.15;;;1.80;;
59571;SDS011;59406;45.602;11.904;2022-07-06T09:35:20;3.53;;;2.10;;
59571;SDS011;59406;45.602;11.904;2022-07-06T09:37:59;4.10;;;2.15;;
59571;SDS011;59406;45.602;11.904;2022-07-06T09:40:26;3.72;;;1.80;;
59571;SDS011;59406;45.602;11.904;2022-07-06T09:43:38;3.47;;;2.13;;
59571;SDS011;59406;45.602;11.904;2022-07-06T09:45:54;4.47;;;2.40;;
59571;SDS011;59406;45.602;11.904;2022-07-06T09:48:22;3.33;;;2.00;;
59571;SDS011;59406;45.602;11.904;2022-07-06T09:50:55;3.78;;;2.10;;
59571;SDS011;59406;45.602;11.904;2022-07-06T09:53:24;4.15;;;1.98;;
59571;SDS011;59406;45.602;11.904;2022-07-06T09:55:55;5.20;;;1.93;;
59571;SDS011;59406;45.602;11.904;2022-07-06T09:58:24;3.30;;;1.90;;
59571;SDS011;59406;45.602;11.904;2022-07-06T10:00:50;3.55;;;2.10;;
59571;SDS011;59406;45.602;11.904;2022-07-06T10:03:16;4.07;;;2.15;;
59571;SDS011;59406;45.602;11.904;2022-07-06T10:05:44;4.40;;;2.40;;
59571;SDS011;59406;45.602;11.904;2022-07-06T10:08:12;3.97;;;2.20;;
59571;SDS011;59406;45.602;11.904;2022-07-06T10:10:40;4.43;;;3.10;;
59571;SDS011;59406;45.602;11.904;2022-07-06T10:13:07;3.45;;;2.47;;
59571;SDS011;59406;45.602;11.904;2022-07-06T10:15:36;3.65;;;2.38;;
59571;SDS011;59406;45.602;11.904;2022-07-06T10:18:07;3.70;;;2.17;;
59571;SDS011;59406;45.602;11.904;2022-07-06T10:20:36;4.00;;;2.90;;
59571;SDS011;59406;45.602;11.904;2022-07-06T10:23:05;3.50;;;2.40;;
59571;SDS011;59406;45.602;11.904;2022-07-06T10:25:33;3.85;;;2.40;;
59571;SDS011;59406;45.602;11.904;2022-07-06T10:28:00;3.67;;;2.65;;
59571;SDS011;59406;45.602;11.904;2022-07-06T10:30:27;3.50;;;2.40;;
59571;SDS011;59406;45.602;11.904;2022-07-06T10:32:54;4.30;;;2.50;;
59571;SDS011;59406;45.602;11.904;2022-07-06T10:35:22;4.25;;;2.40;;
59571;SDS011;59406;45.602;11.904;2022-07-06T10:38:06;3.75;;;2.70;;
59571;SDS011;59406;45.602;11.904;2022-07-06T10:40:37;4.88;;;3.10;;
59571;SDS011;59406;45.602;11.904;2022-07-06T10:43:22;6.07;;;3.42;;
59571;SDS011;59406;45.602;11.904;2022-07-06T10:45:56;4.47;;;3.67;;
59571;SDS011;59406;45.602;11.904;2022-07-06T10:48:22;4.43;;;3.55;;
59571;SDS011;59406;45.602;11.904;2022-07-06T10:50:49;5.93;;;3.53;;
59571;SDS011;59406;45.602;11.904;2022-07-06T10:55:51;4.10;;;3.38;;
59571;SDS011;59406;45.602;11.904;2022-07-06T11:01:08;4.65;;;3.20;;
59571;SDS011;59406;45.602;11.904;2022-07-06T11:03:42;5.85;;;3.10;;
59571;SDS011;59406;45.602;11.904;2022-07-06T11:06:19;4.68;;;3.40;;
59571;SDS011;59406;45.602;11.904;2022-07-06T11:11:41;4.07;;;3.20;;
59571;SDS011;59406;45.602;11.904;2022-07-06T11:14:14;4.53;;;3.47;;
59571;SDS011;59406;45.602;11.904;2022-07-06T11:19:15;4.20;;;3.30;;
59571;SDS011;59406;45.602;11.904;2022-07-06T11:21:44;6.18;;;3.97;;
59571;SDS011;59406;45.602;11.904;2022-07-06T11:24:15;5.33;;;3.60;;
59571;SDS011;59406;45.602;11.904;2022-07-06T11:26:44;5.10;;;3.50;;
59571;SDS011;59406;45.602;11.904;2022-07-06T11:29:12;4.70;;;3.72;;
59571;SDS011;59406;45.602;11.904;2022-07-06T11:31:40;3.88;;;3.45;;
59571;SDS011;59406;45.602;11.904;2022-07-06T11:34:09;4.68;;;3.95;;
59571;SDS011;59406;45.602;11.904;2022-07-06T11:36:38;4.07;;;3.57;;
59571;SDS011;59406;45.602;11.904;2022-07-06T11:39:04;5.03;;;3.95;;
59571;SDS011;59406;45.602;11.904;2022-07-06T11:41:31;4.45;;;3.53;;
59571;SDS011;59406;45.602;11.904;2022-07-06T11:43:57;5.30;;;3.30;;
59571;SDS011;59406;45.602;11.904;2022-07-06T11:48:56;4.25;;;3.20;;
59571;SDS011;59406;45.602;11.904;2022-07-06T11:51:25;3.85;;;3.45;;
59571;SDS011;59406;45.602;11.904;2022-07-06T11:53:53;4.38;;;3.80;;
59571;SDS011;59406;45.602;11.904;2022-07-06T11:56:21;4.15;;;3.72;;
59571;SDS011;59406;45.602;11.904;2022-07-06T11:58:51;6.50;;;3.83;;
59571;SDS011;59406;45.602;11.904;2022-07-06T12:01:19;4.55;;;3.55;;
59571;SDS011;59406;45.602;11.904;2022-07-06T12:03:46;4.28;;;3.85;;
59571;SDS011;59406;45.602;11.904;2022-07-06T12:06:13;4.90;;;4.20;;
59571;SDS011;59406;45.602;11.904;2022-07-06T12:08:45;5.25;;;4.75;;
59571;SDS011;59406;45.602;11.904;2022-07-06T12:11:28;5.17;;;4.77;;
59571;SDS011;59406;45.602;11.904;2022-07-06T12:13:57;5.00;;;4.32;;
59571;SDS011;59406;45.602;11.904;2022-07-06T12:16:31;5.13;;;4.68;;
59571;SDS011;59406;45.602;11.904;2022-07-06T12:19:04;5.00;;;4.60;;
59571;SDS011;59406;45.602;11.904;2022-07-06T12:21:32;4.85;;;4.45;;
59571;SDS011;59406;45.602;11.904;2022-07-06T12:23:59;4.90;;;4.50;;
59571;SDS011;59406;45.602;11.904;2022-07-06T12:26:27;5.13;;;4.72;;
59571;SDS011;59406;45.602;11.904;2022-07-06T12:29:29;5.82;;;5.30;;
59571;SDS011;59406;45.602;11.904;2022-07-06T12:34:20;4.80;;;3.63;;
59571;SDS011;59406;45.602;11.904;2022-07-06T12:36:58;4.93;;;3.70;;
59571;SDS011;59406;45.602;11.904;2022-07-06T12:39:27;5.03;;;4.20;;
59571;SDS011;59406;45.602;11.904;2022-07-06T12:41:54;4.97;;;4.57;;
59571;SDS011;59406;45.602;11.904;2022-07-06T12:44:28;4.07;;;3.67;;
59571;SDS011;59406;45.602;11.904;2022-07-06T12:47:05;4.93;;;4.53;;
59571;SDS011;59406;45.602;11.904;2022-07-06T12:49:32;4.57;;;3.67;;
59571;SDS011;59406;45.602;11.904;2022-07-06T12:54:32;4.50;;;4.10;;
59571;SDS011;59406;45.602;11.904;2022-07-06T12:59:41;4.68;;;3.70;;
59571;SDS011;59406;45.602;11.904;2022-07-06T13:02:25;4.10;;;3.70;;
59571;SDS011;59406;45.602;11.904;2022-07-06T13:05:05;4.10;;;3.67;;
59571;SDS011;59406;45.602;11.904;2022-07-06T13:07:34;5.13;;;4.40;;
59571;SDS011;59406;45.602;11.904;2022-07-06T13:10:08;4.78;;;3.60;;
59571;SDS011;59406;45.602;11.904;2022-07-06T13:12:36;5.38;;;4.85;;
59571;SDS011;59406;45.602;11.904;2022-07-06T13:15:03;4.67;;;4.27;;
59571;SDS011;59406;45.602;11.904;2022-07-06T13:17:31;5.20;;;4.68;;
59571;SDS011;59406;45.602;11.904;2022-07-06T13:19:58;4.13;;;3.72;;
59571;SDS011;59406;45.602;11.904;2022-07-06T13:22:24;4.60;;;4.10;;
59571;SDS011;59406;45.602;11.904;2022-07-06T13:24:49;4.70;;;4.23;;
59571;SDS011;59406;45.602;11.904;2022-07-06T13:27:15;5.07;;;4.03;;
59571;SDS011;59406;45.602;11.904;2022-07-06T13:29:42;5.00;;;4.60;;
59571;SDS011;59406;45.602;11.904;2022-07-06T13:32:08;5.05;;;3.72;;
59571;SDS011;59406;45.602;11.904;2022-07-06T13:34:34;4.63;;;4.07;;
59571;SDS011;59406;45.602;11.904;2022-07-06T13:37:03;4.30;;;3.90;;
59571;SDS011;59406;45.602;11.904;2022-07-06T13:39:29;4.93;;;3.80;;
59571;SDS011;59406;45.602;11.904;2022-07-06T13:41:55;4.78;;;4.38;;
59571;SDS011;59406;45.602;11.904;2022-07-06T13:44:21;5.10;;;4.60;;
59571;SDS011;59406;45.602;11.904;2022-07-06T13:46:48;4.60;;;4.20;;
59571;SDS011;59406;45.602;11.904;2022-07-06T13:49:14;5.05;;;4.18;;
59571;SDS011;59406;45.602;11.904;2022-07-06T13:51:40;4.97;;;4.57;;
59571;SDS011;59406;45.602;11.904;2022-07-06T13:54:06;4.10;;;3.70;;
59571;SDS011;59406;45.602;11.904;2022-07-06T13:56:32;4.55;;;4.15;;
59571;SDS011;59406;45.602;11.904;2022-07-06T13:58:58;4.73;;;3.87;;
59571;SDS011;59406;45.602;11.904;2022-07-06T14:01:25;4.50;;;3.70;;
59571;SDS011;59406;45.602;11.904;2022-07-06T14:03:51;4.00;;;3.60;;
59571;SDS011;59406;45.602;11.904;2022-07-06T14:06:18;4.85;;;4.35;;
59571;SDS011;59406;45.602;11.904;2022-07-06T14:08:45;5.05;;;3.42;;
59571;SDS011;59406;45.602;11.904;2022-07-06T14:11:11;4.87;;;3.67;;
59571;SDS011;59406;45.602;11.904;2022-07-06T14:13:37;5.00;;;3.78;;
59571;SDS011;59406;45.602;11.904;2022-07-06T14:16:03;4.07;;;3.67;;
59571;SDS011;59406;45.602;11.904;2022-07-06T14:18:30;4.80;;;3.10;;
59571;SDS011;59406;45.602;11.904;2022-07-06T14:20:56;3.67;;;3.10;;
59571;SDS011;59406;45.602;11.904;2022-07-06T14:23:22;4.00;;;3.33;;
59571;SDS011;59406;45.602;11.904;2022-07-06T14:25:49;4.40;;;3.00;;
59571;SDS011;59406;45.602;11.904;2022-07-06T14:28:16;3.50;;;3.03;;
59571;SDS011;59406;45.602;11.904;2022-07-06T14:30:43;4.63;;;3.23;;
59571;SDS011;59406;45.602;11.904;2022-07-06T14:33:10;4.22;;;3.03;;
59571;SDS011;59406;45.602;11.904;2022-07-06T14:35:38;3.97;;;3.58;;
59571;SDS011;59406;45.602;11.904;2022-07-06T14:38:16;3.80;;;2.90;;
59571;SDS011;59406;45.602;11.904;2022-07-06T14:40:42;3.92;;;3.35;;
59571;SDS011;59406;45.602;11.904;2022-07-06T14:43:09;4.43;;;3.13;;
59571;SDS011;59406;45.602;11.904;2022-07-06T14:45:35;4.68;;;3.67;;
59571;SDS011;59406;45.602;11.904;2022-07-06T14:48:01;4.15;;;3.22;;
59571;SDS011;59406;45.602;11.904;2022-07-06T14:50:27;4.28;;;2.60;;
59571;SDS011;59406;45.602;11.904;2022-07-06T14:52:53;3.63;;;2.90;;
59571;SDS011;59406;45.602;11.904;2022-07-06T14:55:20;4.13;;;2.70;;
59571;SDS011;59406;45.602;11.904;2022-07-06T14:57:46;4.18;;;2.50;;
59571;SDS011;59406;45.602;11.904;2022-07-06T15:00:13;3.20;;;2.63;;
59571;SDS011;59406;45.602;11.904;2022-07-06T15:02:40;4.38;;;2.80;;